sensor_id;sensor_type;location;lat;lon;timestamp;temperature;humidity
53208;DHT22;39093;52.788;6.940;2023-07-31T00:00:19;15.90;99.90
53208;DHT22;39093;52.788;6.940;2023-07-31T00:02:46;15.70;99.90
53208;DHT22;39093;52.788;6.940;2023-07-31T00:05:13;15.70;99.90
53208;DHT22;39093;52.788;6.940;2023-07-31T00:07:40;15.70;99.90
53208;DHT22;39093;52.788;6.940;2023-07-31T00:10:10;15.60;99.90
53208;DHT22;39093;52.788;6.940;2023-07-31T00:12:39;15.70;99.90
53208;DHT22;39093;52.788;6.940;2023-07-31T00:15:07;15.60;99.90
53208;DHT22;39093;52.788;6.940;2023-07-31T00:17:35;15.60;99.90
53208;DHT22;39093;52.788;6.940;2023-07-31T00:20:03;15.70;99.90
53208;DHT22;39093;52.788;6.940;2023-07-31T00:22:30;15.70;99.90
53208;DHT22;39093;52.788;6.940;2023-07-31T00:24:59;15.60;99.90
53208;DHT22;39093;52.788;6.940;2023-07-31T00:27:26;15.60;99.90
53208;DHT22;39093;52.788;6.940;2023-07-31T00:29:53;15.70;99.90
53208;DHT22;39093;52.788;6.940;2023-07-31T00:32:20;15.60;99.90
53208;DHT22;39093;52.788;6.940;2023-07-31T00:34:47;15.60;99.90
53208;DHT22;39093;52.788;6.940;2023-07-31T00:37:14;15.50;99.90
53208;DHT22;39093;52.788;6.940;2023-07-31T00:39:42;15.50;99.90
53208;DHT22;39093;52.788;6.940;2023-07-31T00:42:09;15.50;99.90
53208;DHT22;39093;52.788;6.940;2023-07-31T00:44:36;15.60;99.90
53208;DHT22;39093;52.788;6.940;2023-07-31T00:47:03;15.60;99.90
53208;DHT22;39093;52.788;6.940;2023-07-31T00:49:30;15.60;99.90
53208;DHT22;39093;52.788;6.940;2023-07-31T00:51:57;15.60;99.90
53208;DHT22;39093;52.788;6.940;2023-07-31T00:54:25;15.50;99.90
53208;DHT22;39093;52.788;6.940;2023-07-31T00:56:53;15.50;99.90
53208;DHT22;39093;52.788;6.940;2023-07-31T00:59:21;15.50;99.90
53208;DHT22;39093;52.788;6.940;2023-07-31T01:01:50;15.50;99.90
53208;DHT22;39093;52.788;6.940;2023-07-31T01:04:18;15.50;99.90
53208;DHT22;39093;52.788;6.940;2023-07-31T01:07:45;15.50;99.90
53208;DHT22;39093;52.788;6.940;2023-07-31T01:09:47;15.40;99.90
53208;DHT22;39093;52.788;6.940;2023-07-31T01:12:20;15.40;99.90
53208;DHT22;39093;52.788;6.940;2023-07-31T01:15:02;15.40;99.90
53208;DHT22;39093;52.788;6.940;2023-07-31T01:17:29;15.40;99.90
53208;DHT22;39093;52.788;6.940;2023-07-31T01:20:00;15.50;99.90
53208;DHT22;39093;52.788;6.940;2023-07-31T01:26:34;15.40;99.90
53208;DHT22;39093;52.788;6.940;2023-07-31T01:28:38;15.40;99.90
53208;DHT22;39093;52.788;6.940;2023-07-31T01:31:08;15.40;99.90
53208;DHT22;39093;52.788;6.940;2023-07-31T01:33:38;15.30;99.90
53208;DHT22;39093;52.788;6.940;2023-07-31T01:36:11;15.20;99.90
53208;DHT22;39093;52.788;6.940;2023-07-31T01:38:38;15.20;99.90
53208;DHT22;39093;52.788;6.940;2023-07-31T01:41:05;15.30;99.90
53208;DHT22;39093;52.788;6.940;2023-07-31T01:43:32;15.20;99.90
53208;DHT22;39093;52.788;6.940;2023-07-31T01:45:59;15.20;99.90
53208;DHT22;39093;52.788;6.940;2023-07-31T01:48:26;15.20;99.90
53208;DHT22;39093;52.788;6.940;2023-07-31T01:50:53;15.20;99.90
53208;DHT22;39093;52.788;6.940;2023-07-31T01:53:20;15.20;99.90
53208;DHT22;39093;52.788;6.940;2023-07-31T01:55:47;15.30;99.90
53208;DHT22;39093;52.788;6.940;2023-07-31T01:58:14;15.30;99.90
53208;DHT22;39093;52.788;6.940;2023-07-31T02:00:41;15.30;99.90
53208;DHT22;39093;52.788;6.940;2023-07-31T02:03:08;15.20;99.90
53208;DHT22;39093;52.788;6.940;2023-07-31T02:05:35;15.30;99.90
53208;DHT22;39093;52.788;6.940;2023-07-31T02:08:02;15.30;99.90
53208;DHT22;39093;52.788;6.940;2023-07-31T02:10:32;15.30;99.90
53208;DHT22;39093;52.788;6.940;2023-07-31T02:12:59;15.30;99.90
53208;DHT22;39093;52.788;6.940;2023-07-31T02:15:26;15.20;99.90
53208;DHT22;39093;52.788;6.940;2023-07-31T02:17:52;15.20;99.90
53208;DHT22;39093;52.788;6.940;2023-07-31T02:20:20;15.20;99.90
53208;DHT22;39093;52.788;6.940;2023-07-31T02:22:46;15.30;99.90
53208;DHT22;39093;52.788;6.940;2023-07-31T02:25:13;15.30;99.90
53208;DHT22;39093;52.788;6.940;2023-07-31T02:27:41;15.30;99.90
53208;DHT22;39093;52.788;6.940;2023-07-31T02:30:09;15.30;99.90
53208;DHT22;39093;52.788;6.940;2023-07-31T02:32:36;15.20;99.90
53208;DHT22;39093;52.788;6.940;2023-07-31T02:35:03;15.20;99.90
53208;DHT22;39093;52.788;6.940;2023-07-31T02:37:33;15.20;99.90
53208;DHT22;39093;52.788;6.940;2023-07-31T02:40:02;15.20;99.90
53208;DHT22;39093;52.788;6.940;2023-07-31T02:42:39;15.20;99.90
53208;DHT22;39093;52.788;6.940;2023-07-31T02:45:06;15.20;99.90
53208;DHT22;39093;52.788;6.940;2023-07-31T02:47:33;15.20;99.90
53208;DHT22;39093;52.788;6.940;2023-07-31T02:50:02;15.30;99.90
53208;DHT22;39093;52.788;6.940;2023-07-31T02:52:29;15.20;99.90
53208;DHT22;39093;52.788;6.940;2023-07-31T02:54:57;15.20;99.90
53208;DHT22;39093;52.788;6.940;2023-07-31T02:57:25;15.20;99.90
53208;DHT22;39093;52.788;6.940;2023-07-31T02:59:52;15.30;99.90
53208;DHT22;39093;52.788;6.940;2023-07-31T03:02:19;15.30;99.90
53208;DHT22;39093;52.788;6.940;2023-07-31T03:04:46;15.30;99.90
53208;DHT22;39093;52.788;6.940;2023-07-31T03:07:14;15.30;99.90
53208;DHT22;39093;52.788;6.940;2023-07-31T03:09:41;15.40;99.90
53208;DHT22;39093;52.788;6.940;2023-07-31T03:12:08;15.40;99.90
53208;DHT22;39093;52.788;6.940;2023-07-31T03:14:35;15.40;99.90
53208;DHT22;39093;52.788;6.940;2023-07-31T03:17:02;15.40;99.90
53208;DHT22;39093;52.788;6.940;2023-07-31T03:19:31;15.40;99.90
53208;DHT22;39093;52.788;6.940;2023-07-31T03:21:59;15.40;99.90
53208;DHT22;39093;52.788;6.940;2023-07-31T03:24:26;15.40;99.90
53208;DHT22;39093;52.788;6.940;2023-07-31T03:26:54;15.40;99.90
53208;DHT22;39093;52.788;6.940;2023-07-31T03:29:21;15.50;99.90
53208;DHT22;39093;52.788;6.940;2023-07-31T03:31:50;15.40;99.90
53208;DHT22;39093;52.788;6.940;2023-07-31T03:34:17;15.50;99.90
53208;DHT22;39093;52.788;6.940;2023-07-31T03:36:44;15.50;99.90
53208;DHT22;39093;52.788;6.940;2023-07-31T03:39:11;15.50;99.90
53208;DHT22;39093;52.788;6.940;2023-07-31T03:41:38;15.60;99.90
53208;DHT22;39093;52.788;6.940;2023-07-31T03:44:05;15.60;99.90
53208;DHT22;39093;52.788;6.940;2023-07-31T03:46:32;15.60;99.90
53208;DHT22;39093;52.788;6.940;2023-07-31T03:49:00;15.50;99.90
53208;DHT22;39093;52.788;6.940;2023-07-31T03:51:28;15.60;99.90
53208;DHT22;39093;52.788;6.940;2023-07-31T03:53:58;15.60;99.90
53208;DHT22;39093;52.788;6.940;2023-07-31T03:56:25;15.60;99.90
53208;DHT22;39093;52.788;6.940;2023-07-31T03:58:52;15.60;99.90
53208;DHT22;39093;52.788;6.940;2023-07-31T04:01:22;15.60;99.90
53208;DHT22;39093;52.788;6.940;2023-07-31T04:03:49;15.60;99.90
53208;DHT22;39093;52.788;6.940;2023-07-31T04:06:16;15.60;99.90
53208;DHT22;39093;52.788;6.940;2023-07-31T04:08:45;15.60;99.90
53208;DHT22;39093;52.788;6.940;2023-07-31T04:11:12;15.60;99.90
53208;DHT22;39093;52.788;6.940;2023-07-31T04:13:39;15.60;99.90
53208;DHT22;39093;52.788;6.940;2023-07-31T04:16:06;15.70;99.90
53208;DHT22;39093;52.788;6.940;2023-07-31T04:18:33;15.70;99.90
53208;DHT22;39093;52.788;6.940;2023-07-31T04:21:00;15.70;99.90
53208;DHT22;39093;52.788;6.940;2023-07-31T04:23:33;15.80;99.90
53208;DHT22;39093;52.788;6.940;2023-07-31T04:25:59;15.70;99.90
53208;DHT22;39093;52.788;6.940;2023-07-31T04:28:26;15.80;99.90
53208;DHT22;39093;52.788;6.940;2023-07-31T04:30:53;15.80;99.90
53208;DHT22;39093;52.788;6.940;2023-07-31T04:33:24;15.80;99.90
53208;DHT22;39093;52.788;6.940;2023-07-31T04:35:54;15.80;99.90
53208;DHT22;39093;52.788;6.940;2023-07-31T04:38:22;15.80;99.90
53208;DHT22;39093;52.788;6.940;2023-07-31T04:40:49;15.80;99.90
53208;DHT22;39093;52.788;6.940;2023-07-31T04:43:16;15.80;99.90
53208;DHT22;39093;52.788;6.940;2023-07-31T04:45:46;15.80;99.90
53208;DHT22;39093;52.788;6.940;2023-07-31T04:48:14;15.80;99.90
53208;DHT22;39093;52.788;6.940;2023-07-31T04:50:41;15.80;99.90
53208;DHT22;39093;52.788;6.940;2023-07-31T04:53:08;15.80;99.90
53208;DHT22;39093;52.788;6.940;2023-07-31T04:55:35;15.80;99.90
53208;DHT22;39093;52.788;6.940;2023-07-31T04:58:38;15.90;99.90
53208;DHT22;39093;52.788;6.940;2023-07-31T05:01:09;15.90;99.90
53208;DHT22;39093;52.788;6.940;2023-07-31T05:03:43;15.90;99.90
53208;DHT22;39093;52.788;6.940;2023-07-31T05:06:18;15.80;99.90
53208;DHT22;39093;52.788;6.940;2023-07-31T05:08:47;15.90;99.90
53208;DHT22;39093;52.788;6.940;2023-07-31T05:11:26;15.90;99.90
53208;DHT22;39093;52.788;6.940;2023-07-31T05:13:58;16.00;99.90
53208;DHT22;39093;52.788;6.940;2023-07-31T05:16:29;16.00;99.90
53208;DHT22;39093;52.788;6.940;2023-07-31T05:19:06;15.90;99.90
53208;DHT22;39093;52.788;6.940;2023-07-31T05:21:35;15.90;99.90
53208;DHT22;39093;52.788;6.940;2023-07-31T05:24:02;15.90;99.90
53208;DHT22;39093;52.788;6.940;2023-07-31T05:26:30;16.00;99.90
53208;DHT22;39093;52.788;6.940;2023-07-31T05:28:59;16.00;99.90
53208;DHT22;39093;52.788;6.940;2023-07-31T05:31:26;16.00;99.90
53208;DHT22;39093;52.788;6.940;2023-07-31T05:33:53;16.10;99.90
53208;DHT22;39093;52.788;6.940;2023-07-31T05:36:20;16.10;99.90
53208;DHT22;39093;52.788;6.940;2023-07-31T05:38:50;16.10;99.90
53208;DHT22;39093;52.788;6.940;2023-07-31T05:41:17;16.10;99.90
53208;DHT22;39093;52.788;6.940;2023-07-31T05:43:45;16.20;99.90
53208;DHT22;39093;52.788;6.940;2023-07-31T05:46:12;16.20;99.90
53208;DHT22;39093;52.788;6.940;2023-07-31T05:48:39;16.20;99.90
53208;DHT22;39093;52.788;6.940;2023-07-31T05:51:08;16.20;99.90
53208;DHT22;39093;52.788;6.940;2023-07-31T05:53:35;16.30;99.90
53208;DHT22;39093;52.788;6.940;2023-07-31T05:56:05;16.20;99.90
53208;DHT22;39093;52.788;6.940;2023-07-31T05:58:34;16.20;99.90
53208;DHT22;39093;52.788;6.940;2023-07-31T06:01:01;16.30;99.90
53208;DHT22;39093;52.788;6.940;2023-07-31T06:03:28;16.30;99.90
53208;DHT22;39093;52.788;6.940;2023-07-31T06:05:58;16.30;99.90
53208;DHT22;39093;52.788;6.940;2023-07-31T06:08:25;16.30;99.90
53208;DHT22;39093;52.788;6.940;2023-07-31T06:10:55;16.30;99.90
53208;DHT22;39093;52.788;6.940;2023-07-31T06:13:28;16.30;99.90
53208;DHT22;39093;52.788;6.940;2023-07-31T06:15:56;16.30;99.90
53208;DHT22;39093;52.788;6.940;2023-07-31T06:18:26;16.30;99.90
53208;DHT22;39093;52.788;6.940;2023-07-31T06:20:54;16.30;99.90
53208;DHT22;39093;52.788;6.940;2023-07-31T06:23:26;16.30;99.90
53208;DHT22;39093;52.788;6.940;2023-07-31T06:25:53;16.30;99.90
53208;DHT22;39093;52.788;6.940;2023-07-31T06:28:31;16.30;99.90
53208;DHT22;39093;52.788;6.940;2023-07-31T06:30:59;16.40;99.90
53208;DHT22;39093;52.788;6.940;2023-07-31T06:33:27;16.50;99.90
53208;DHT22;39093;52.788;6.940;2023-07-31T06:35:57;16.50;99.90
53208;DHT22;39093;52.788;6.940;2023-07-31T06:38:27;16.40;99.90
53208;DHT22;39093;52.788;6.940;2023-07-31T06:41:10;16.40;99.90
53208;DHT22;39093;52.788;6.940;2023-07-31T06:44:19;16.40;99.90
53208;DHT22;39093;52.788;6.940;2023-07-31T06:47:02;16.40;99.90
53208;DHT22;39093;52.788;6.940;2023-07-31T06:49:37;16.40;99.90
53208;DHT22;39093;52.788;6.940;2023-07-31T06:52:04;16.40;99.90
53208;DHT22;39093;52.788;6.940;2023-07-31T06:54:31;16.40;99.90
53208;DHT22;39093;52.788;6.940;2023-07-31T06:57:03;16.50;99.90
53208;DHT22;39093;52.788;6.940;2023-07-31T06:59:43;16.50;99.90
53208;DHT22;39093;52.788;6.940;2023-07-31T07:02:10;16.50;99.90
53208;DHT22;39093;52.788;6.940;2023-07-31T07:04:50;16.40;99.90
53208;DHT22;39093;52.788;6.940;2023-07-31T07:07:27;16.40;99.90
53208;DHT22;39093;52.788;6.940;2023-07-31T07:10:11;16.40;99.90
53208;DHT22;39093;52.788;6.940;2023-07-31T07:12:41;16.50;99.90
53208;DHT22;39093;52.788;6.940;2023-07-31T07:15:37;16.50;99.90
53208;DHT22;39093;52.788;6.940;2023-07-31T07:18:27;16.40;99.90
53208;DHT22;39093;52.788;6.940;2023-07-31T07:21:20;16.40;99.90
53208;DHT22;39093;52.788;6.940;2023-07-31T07:23:55;16.40;99.90
53208;DHT22;39093;52.788;6.940;2023-07-31T07:26:31;16.30;99.90
53208;DHT22;39093;52.788;6.940;2023-07-31T07:29:19;16.30;99.90
53208;DHT22;39093;52.788;6.940;2023-07-31T07:31:58;16.30;99.90
53208;DHT22;39093;52.788;6.940;2023-07-31T07:34:29;16.30;99.90
53208;DHT22;39093;52.788;6.940;2023-07-31T07:36:57;16.40;99.90
53208;DHT22;39093;52.788;6.940;2023-07-31T07:39:25;16.30;99.90
53208;DHT22;39093;52.788;6.940;2023-07-31T07:41:57;16.40;99.90
53208;DHT22;39093;52.788;6.940;2023-07-31T07:44:37;16.40;99.90
53208;DHT22;39093;52.788;6.940;2023-07-31T07:47:09;16.40;99.90
53208;DHT22;39093;52.788;6.940;2023-07-31T07:49:37;16.40;99.90
53208;DHT22;39093;52.788;6.940;2023-07-31T07:52:07;16.50;99.90
53208;DHT22;39093;52.788;6.940;2023-07-31T07:55:09;16.40;99.90
53208;DHT22;39093;52.788;6.940;2023-07-31T07:57:45;16.50;99.90
53208;DHT22;39093;52.788;6.940;2023-07-31T13:33:30;19.70;99.90
53208;DHT22;39093;52.788;6.940;2023-07-31T13:36:10;19.40;99.90
53208;DHT22;39093;52.788;6.940;2023-07-31T13:38:39;19.40;99.90
53208;DHT22;39093;52.788;6.940;2023-07-31T13:41:09;19.30;99.90
53208;DHT22;39093;52.788;6.940;2023-07-31T13:43:36;19.30;99.90
53208;DHT22;39093;52.788;6.940;2023-07-31T13:46:03;19.30;99.90
53208;DHT22;39093;52.788;6.940;2023-07-31T13:48:35;19.30;99.90
53208;DHT22;39093;52.788;6.940;2023-07-31T13:51:02;19.30;99.90
53208;DHT22;39093;52.788;6.940;2023-07-31T13:53:32;19.10;99.90
53208;DHT22;39093;52.788;6.940;2023-07-31T13:55:59;19.30;99.90
53208;DHT22;39093;52.788;6.940;2023-07-31T13:58:26;19.30;99.90
53208;DHT22;39093;52.788;6.940;2023-07-31T14:00:53;19.30;99.90
53208;DHT22;39093;52.788;6.940;2023-07-31T14:03:22;19.20;99.90
53208;DHT22;39093;52.788;6.940;2023-07-31T14:05:51;19.20;99.90
53208;DHT22;39093;52.788;6.940;2023-07-31T14:08:19;19.10;99.90
53208;DHT22;39093;52.788;6.940;2023-07-31T14:10:46;19.10;99.90
53208;DHT22;39093;52.788;6.940;2023-07-31T14:13:13;19.00;99.90
53208;DHT22;39093;52.788;6.940;2023-07-31T14:15:42;19.10;99.90
53208;DHT22;39093;52.788;6.940;2023-07-31T14:18:12;19.20;99.90
53208;DHT22;39093;52.788;6.940;2023-07-31T14:20:39;19.20;99.90
53208;DHT22;39093;52.788;6.940;2023-07-31T14:23:06;19.20;99.90
53208;DHT22;39093;52.788;6.940;2023-07-31T14:25:34;19.30;99.90
53208;DHT22;39093;52.788;6.940;2023-07-31T14:28:01;19.20;99.90
53208;DHT22;39093;52.788;6.940;2023-07-31T14:30:28;19.20;99.90
53208;DHT22;39093;52.788;6.940;2023-07-31T14:32:58;19.20;99.90
53208;DHT22;39093;52.788;6.940;2023-07-31T14:35:41;19.30;99.90
53208;DHT22;39093;52.788;6.940;2023-07-31T14:38:10;19.30;99.90
53208;DHT22;39093;52.788;6.940;2023-07-31T14:40:37;19.30;99.90
53208;DHT22;39093;52.788;6.940;2023-07-31T14:43:05;19.30;99.90
53208;DHT22;39093;52.788;6.940;2023-07-31T14:45:38;19.30;99.90
53208;DHT22;39093;52.788;6.940;2023-07-31T16:10:44;18.70;99.90
53208;DHT22;39093;52.788;6.940;2023-07-31T16:13:11;18.70;99.90
53208;DHT22;39093;52.788;6.940;2023-07-31T16:16:07;18.60;99.90
53208;DHT22;39093;52.788;6.940;2023-07-31T16:18:37;18.60;99.90
53208;DHT22;39093;52.788;6.940;2023-07-31T16:21:09;18.60;99.90
53208;DHT22;39093;52.788;6.940;2023-07-31T16:23:39;18.60;99.90
53208;DHT22;39093;52.788;6.940;2023-07-31T16:26:14;18.70;99.90
53208;DHT22;39093;52.788;6.940;2023-07-31T16:28:45;18.70;99.90
53208;DHT22;39093;52.788;6.940;2023-07-31T16:31:14;18.60;99.90
53208;DHT22;39093;52.788;6.940;2023-07-31T16:34:07;18.50;99.90
53208;DHT22;39093;52.788;6.940;2023-07-31T16:36:36;18.50;99.90
53208;DHT22;39093;52.788;6.940;2023-07-31T16:39:09;18.50;99.90
53208;DHT22;39093;52.788;6.940;2023-07-31T16:41:47;18.50;99.90
53208;DHT22;39093;52.788;6.940;2023-07-31T16:44:17;18.40;99.90
53208;DHT22;39093;52.788;6.940;2023-07-31T16:46:45;18.40;99.90
53208;DHT22;39093;52.788;6.940;2023-07-31T16:49:12;18.30;99.90
53208;DHT22;39093;52.788;6.940;2023-07-31T16:51:46;18.20;99.90
53208;DHT22;39093;52.788;6.940;2023-07-31T16:54:13;18.20;99.90
53208;DHT22;39093;52.788;6.940;2023-07-31T16:56:40;18.30;99.90
53208;DHT22;39093;52.788;6.940;2023-07-31T16:59:33;18.20;99.90
53208;DHT22;39093;52.788;6.940;2023-07-31T17:02:01;18.20;99.90
53208;DHT22;39093;52.788;6.940;2023-07-31T17:04:29;18.20;99.90
53208;DHT22;39093;52.788;6.940;2023-07-31T17:06:58;18.10;99.90
53208;DHT22;39093;52.788;6.940;2023-07-31T17:09:25;18.10;99.90
53208;DHT22;39093;52.788;6.940;2023-07-31T17:11:54;18.10;99.90
53208;DHT22;39093;52.788;6.940;2023-07-31T17:14:21;18.10;99.90
53208;DHT22;39093;52.788;6.940;2023-07-31T17:16:48;18.20;99.90
53208;DHT22;39093;52.788;6.940;2023-07-31T17:19:15;18.00;99.90
53208;DHT22;39093;52.788;6.940;2023-07-31T17:21:42;18.00;99.90
53208;DHT22;39093;52.788;6.940;2023-07-31T17:24:09;18.00;99.90
53208;DHT22;39093;52.788;6.940;2023-07-31T17:26:37;17.90;99.90
53208;DHT22;39093;52.788;6.940;2023-07-31T17:29:04;17.90;99.90
53208;DHT22;39093;52.788;6.940;2023-07-31T17:31:31;17.80;99.90
53208;DHT22;39093;52.788;6.940;2023-07-31T17:34:01;17.70;99.90
53208;DHT22;39093;52.788;6.940;2023-07-31T17:36:28;17.70;99.90
53208;DHT22;39093;52.788;6.940;2023-07-31T17:38:55;17.70;99.90
53208;DHT22;39093;52.788;6.940;2023-07-31T17:41:22;17.70;99.90
53208;DHT22;39093;52.788;6.940;2023-07-31T17:43:50;17.70;99.90
53208;DHT22;39093;52.788;6.940;2023-07-31T17:46:18;17.70;99.90
53208;DHT22;39093;52.788;6.940;2023-07-31T17:48:45;17.70;99.90
53208;DHT22;39093;52.788;6.940;2023-07-31T17:51:13;17.60;99.90
53208;DHT22;39093;52.788;6.940;2023-07-31T17:53:40;17.60;99.90
53208;DHT22;39093;52.788;6.940;2023-07-31T17:56:12;17.60;99.90
53208;DHT22;39093;52.788;6.940;2023-07-31T17:58:49;17.60;99.90
53208;DHT22;39093;52.788;6.940;2023-07-31T18:01:21;17.50;99.90
53208;DHT22;39093;52.788;6.940;2023-07-31T18:10:15;17.40;99.90
53208;DHT22;39093;52.788;6.940;2023-07-31T18:12:42;17.40;99.90
53208;DHT22;39093;52.788;6.940;2023-07-31T18:15:36;17.30;99.90
53208;DHT22;39093;52.788;6.940;2023-07-31T18:18:04;17.30;99.90
53208;DHT22;39093;52.788;6.940;2023-07-31T18:20:35;17.30;99.90
53208;DHT22;39093;52.788;6.940;2023-07-31T18:23:06;17.20;99.90
53208;DHT22;39093;52.788;6.940;2023-07-31T18:25:33;17.20;99.90
53208;DHT22;39093;52.788;6.940;2023-07-31T18:28:04;17.30;99.90
53208;DHT22;39093;52.788;6.940;2023-07-31T18:30:31;17.20;99.90
53208;DHT22;39093;52.788;6.940;2023-07-31T18:33:09;17.20;99.90
53208;DHT22;39093;52.788;6.940;2023-07-31T18:35:42;17.40;99.90
53208;DHT22;39093;52.788;6.940;2023-07-31T18:38:12;17.20;99.90
53208;DHT22;39093;52.788;6.940;2023-07-31T18:40:58;17.30;99.90
53208;DHT22;39093;52.788;6.940;2023-07-31T18:43:29;17.20;99.90
53208;DHT22;39093;52.788;6.940;2023-07-31T18:46:00;17.20;99.90
53208;DHT22;39093;52.788;6.940;2023-07-31T18:48:34;17.10;99.90
53208;DHT22;39093;52.788;6.940;2023-07-31T18:51:02;17.20;99.90
53208;DHT22;39093;52.788;6.940;2023-07-31T18:53:30;17.20;99.90
53208;DHT22;39093;52.788;6.940;2023-07-31T18:55:58;17.20;99.90
53208;DHT22;39093;52.788;6.940;2023-07-31T18:58:36;17.20;99.90
53208;DHT22;39093;52.788;6.940;2023-07-31T19:01:07;17.20;99.90
53208;DHT22;39093;52.788;6.940;2023-07-31T19:03:44;17.20;99.90
53208;DHT22;39093;52.788;6.940;2023-07-31T19:06:19;17.20;99.90
53208;DHT22;39093;52.788;6.940;2023-07-31T19:08:52;17.10;99.90
53208;DHT22;39093;52.788;6.940;2023-07-31T19:11:23;17.10;99.90
53208;DHT22;39093;52.788;6.940;2023-07-31T19:14:10;17.10;99.90
53208;DHT22;39093;52.788;6.940;2023-07-31T19:16:50;17.10;99.90
53208;DHT22;39093;52.788;6.940;2023-07-31T19:19:20;17.10;99.90
53208;DHT22;39093;52.788;6.940;2023-07-31T19:21:51;17.10;99.90
53208;DHT22;39093;52.788;6.940;2023-07-31T19:24:38;17.10;99.90
53208;DHT22;39093;52.788;6.940;2023-07-31T19:27:14;17.10;99.90
53208;DHT22;39093;52.788;6.940;2023-07-31T19:29:55;17.00;99.90
53208;DHT22;39093;52.788;6.940;2023-07-31T19:32:26;17.10;99.90
53208;DHT22;39093;52.788;6.940;2023-07-31T19:34:55;17.00;99.90
53208;DHT22;39093;52.788;6.940;2023-07-31T19:37:22;17.10;99.90
53208;DHT22;39093;52.788;6.940;2023-07-31T19:40:03;17.00;99.90
53208;DHT22;39093;52.788;6.940;2023-07-31T19:42:39;17.00;99.90
53208;DHT22;39093;52.788;6.940;2023-07-31T19:45:40;17.00;99.90
53208;DHT22;39093;52.788;6.940;2023-07-31T19:48:25;17.00;99.90
53208;DHT22;39093;52.788;6.940;2023-07-31T19:54:31;17.00;99.90
53208;DHT22;39093;52.788;6.940;2023-07-31T20:18:47;17.10;99.90
53208;DHT22;39093;52.788;6.940;2023-07-31T20:21:22;17.10;99.90
53208;DHT22;39093;52.788;6.940;2023-07-31T20:23:57;17.10;99.90
53208;DHT22;39093;52.788;6.940;2023-07-31T20:26:30;17.00;99.90
53208;DHT22;39093;52.788;6.940;2023-07-31T20:29:05;17.20;99.90
53208;DHT22;39093;52.788;6.940;2023-07-31T20:31:42;17.10;99.90
53208;DHT22;39093;52.788;6.940;2023-07-31T20:34:20;17.10;99.90
53208;DHT22;39093;52.788;6.940;2023-07-31T20:36:52;17.10;99.90
53208;DHT22;39093;52.788;6.940;2023-07-31T21:23:17;17.10;99.90
53208;DHT22;39093;52.788;6.940;2023-07-31T21:25:56;17.00;99.90
53208;DHT22;39093;52.788;6.940;2023-07-31T21:28:24;16.90;99.90
53208;DHT22;39093;52.788;6.940;2023-07-31T21:30:51;16.90;99.90
53208;DHT22;39093;52.788;6.940;2023-07-31T21:33:23;16.90;99.90
53208;DHT22;39093;52.788;6.940;2023-07-31T21:35:50;16.90;99.90
53208;DHT22;39093;52.788;6.940;2023-07-31T21:38:20;16.90;99.90
53208;DHT22;39093;52.788;6.940;2023-07-31T21:40:47;16.90;99.90
53208;DHT22;39093;52.788;6.940;2023-07-31T21:43:17;16.80;99.90
53208;DHT22;39093;52.788;6.940;2023-07-31T21:45:49;16.80;99.90
53208;DHT22;39093;52.788;6.940;2023-07-31T21:48:16;16.80;99.90
53208;DHT22;39093;52.788;6.940;2023-07-31T21:51:02;16.70;99.90
53208;DHT22;39093;52.788;6.940;2023-07-31T21:53:29;16.70;99.90
53208;DHT22;39093;52.788;6.940;2023-07-31T21:55:56;16.70;99.90
53208;DHT22;39093;52.788;6.940;2023-07-31T21:58:26;16.70;99.90
53208;DHT22;39093;52.788;6.940;2023-07-31T22:00:53;16.70;99.90
53208;DHT22;39093;52.788;6.940;2023-07-31T22:03:21;16.80;99.90
53208;DHT22;39093;52.788;6.940;2023-07-31T22:05:50;16.70;99.90
53208;DHT22;39093;52.788;6.940;2023-07-31T22:08:17;16.70;99.90
53208;DHT22;39093;52.788;6.940;2023-07-31T22:10:44;16.70;99.90
53208;DHT22;39093;52.788;6.940;2023-07-31T22:13:11;16.70;99.90
53208;DHT22;39093;52.788;6.940;2023-07-31T22:15:38;16.70;99.90
53208;DHT22;39093;52.788;6.940;2023-07-31T22:18:09;16.70;99.90
53208;DHT22;39093;52.788;6.940;2023-07-31T22:20:36;16.60;99.90
53208;DHT22;39093;52.788;6.940;2023-07-31T22:23:03;16.70;99.90
53208;DHT22;39093;52.788;6.940;2023-07-31T22:25:30;16.70;99.90
53208;DHT22;39093;52.788;6.940;2023-07-31T22:27:57;16.60;99.90
53208;DHT22;39093;52.788;6.940;2023-07-31T22:30:40;16.70;99.90
53208;DHT22;39093;52.788;6.940;2023-07-31T22:33:07;16.70;99.90
53208;DHT22;39093;52.788;6.940;2023-07-31T22:35:34;16.70;99.90
53208;DHT22;39093;52.788;6.940;2023-07-31T22:38:02;16.70;99.90
53208;DHT22;39093;52.788;6.940;2023-07-31T22:40:29;16.70;99.90
53208;DHT22;39093;52.788;6.940;2023-07-31T22:42:56;16.80;99.90
53208;DHT22;39093;52.788;6.940;2023-07-31T22:45:23;16.70;99.90
53208;DHT22;39093;52.788;6.940;2023-07-31T22:47:50;16.70;99.90
53208;DHT22;39093;52.788;6.940;2023-07-31T22:50:17;16.70;99.90
53208;DHT22;39093;52.788;6.940;2023-07-31T22:52:44;16.70;99.90
53208;DHT22;39093;52.788;6.940;2023-07-31T22:55:12;16.70;99.90
53208;DHT22;39093;52.788;6.940;2023-07-31T22:57:39;16.70;99.90
53208;DHT22;39093;52.788;6.940;2023-07-31T23:00:07;16.70;99.90
53208;DHT22;39093;52.788;6.940;2023-07-31T23:02:34;16.70;99.90
53208;DHT22;39093;52.788;6.940;2023-07-31T23:05:01;16.70;99.90
53208;DHT22;39093;52.788;6.940;2023-07-31T23:07:29;16.70;99.90
53208;DHT22;39093;52.788;6.940;2023-07-31T23:09:58;16.60;99.90
53208;DHT22;39093;52.788;6.940;2023-07-31T23:12:27;16.60;99.90
53208;DHT22;39093;52.788;6.940;2023-07-31T23:14:54;16.60;99.90
53208;DHT22;39093;52.788;6.940;2023-07-31T23:17:21;16.50;99.90
53208;DHT22;39093;52.788;6.940;2023-07-31T23:19:48;16.60;99.90
53208;DHT22;39093;52.788;6.940;2023-07-31T23:22:15;16.50;99.90
53208;DHT22;39093;52.788;6.940;2023-07-31T23:24:44;16.60;99.90
53208;DHT22;39093;52.788;6.940;2023-07-31T23:27:11;16.50;99.90
53208;DHT22;39093;52.788;6.940;2023-07-31T23:29:38;16.40;99.90
53208;DHT22;39093;52.788;6.940;2023-07-31T23:32:06;16.40;99.90
53208;DHT22;39093;52.788;6.940;2023-07-31T23:34:33;16.40;99.90
53208;DHT22;39093;52.788;6.940;2023-07-31T23:37:00;16.40;99.90
53208;DHT22;39093;52.788;6.940;2023-07-31T23:39:27;16.40;99.90
53208;DHT22;39093;52.788;6.940;2023-07-31T23:41:55;16.40;99.90
53208;DHT22;39093;52.788;6.940;2023-07-31T23:44:22;16.40;99.90
53208;DHT22;39093;52.788;6.940;2023-07-31T23:46:50;16.30;99.90
53208;DHT22;39093;52.788;6.940;2023-07-31T23:49:17;16.40;99.90
53208;DHT22;39093;52.788;6.940;2023-07-31T23:51:45;16.40;99.90
53208;DHT22;39093;52.788;6.940;2023-07-31T23:54:12;16.30;99.90
53208;DHT22;39093;52.788;6.940;2023-07-31T23:56:39;16.30;99.90
53208;DHT22;39093;52.788;6.940;2023-07-31T23:59:08;16.30;99.90
